Time;durP1;ratioP1;P1;durP2;ratioP2;P2;SDS_P1;SDS_P2;PMS_P1;PMS_P2;Temp;Humidity;BMP_temperature;BMP_pressure;BME280_temperature;BME280_humidity;BME280_pressure;Samples;Min_cycle;Max_cycle;Signal;HPM_P1;HPM_P2
2023/08/09 04:02:04;;;;;;;1.20;0.85;;;12.30;99.90;;;;;;5169051;23;20540;-74
2023/08/09 04:04:30;;;;;;;0.37;0.37;;;12.30;99.90;;;;;;4905952;29;20221;-72
2023/08/09 04:06:57;;;;;;;2.83;0.60;;;12.30;99.90;;;;;;4909045;29;20467;-73
2023/08/09 04:09:24;;;;;;;0.50;0.50;;;12.30;99.90;;;;;;4914567;29;20218;-72
2023/08/09 04:11:50;;;;;;;0.20;0.20;;;12.30;99.90;;;;;;4913565;29;20494;-73
2023/08/09 04:14:17;;;;;;;0.68;0.68;;;12.30;99.90;;;;;;4907810;29;20475;-70
2023/08/09 04:16:44;;;;;;;0.60;0.60;;;12.30;99.90;;;;;;4914057;29;20214;-72
2023/08/09 04:19:12;;;;;;;0.50;0.50;;;12.30;99.90;;;;;;4914202;29;20203;-72
2023/08/09 04:21:38;;;;;;;3.80;0.75;;;12.20;99.90;;;;;;4914554;29;20238;-73
2023/08/09 04:24:06;;;;;;;0.60;0.60;;;12.20;99.90;;;;;;4914132;29;20236;-72
2023/08/09 04:26:33;;;;;;;0.73;0.73;;;12.20;99.90;;;;;;4913846;29;20482;-72
2023/08/09 04:28:59;;;;;;;0.50;0.50;;;12.20;99.90;;;;;;4913610;29;20494;-72
2023/08/09 04:31:26;;;;;;;0.57;0.57;;;12.20;99.90;;;;;;4912175;29;20234;-73
2023/08/09 04:33:53;;;;;;;0.37;0.37;;;12.30;99.90;;;;;;4913395;29;20481;-72
2023/08/09 04:36:21;;;;;;;0.70;0.70;;;12.30;99.90;;;;;;4913472;29;20486;-72
2023/08/09 04:38:48;;;;;;;0.50;0.50;;;12.30;99.90;;;;;;4913375;29;20474;-72
2023/08/09 04:41:15;;;;;;;0.77;0.77;;;12.30;99.90;;;;;;4912709;29;20486;-72
2023/08/09 04:43:43;;;;;;;0.77;0.77;;;12.30;99.90;;;;;;4913471;29;20477;-73
2023/08/09 04:46:12;;;;;;;0.53;0.53;;;12.40;99.90;;;;;;4911899;29;20520;-73
2023/08/09 04:48:39;;;;;;;7.13;1.20;;;12.60;99.90;;;;;;4913493;29;20486;-73
2023/08/09 04:51:06;;;;;;;1.17;1.07;;;13.00;99.90;;;;;;4913632;29;20586;-72
2023/08/09 04:53:34;;;;;;;1.10;1.10;;;13.30;99.90;;;;;;4917565;29;20497;-73
2023/08/09 04:56:01;;;;;;;0.53;0.53;;;13.50;99.90;;;;;;4911558;29;20471;-72
2023/08/09 04:58:27;;;;;;;1.57;1.47;;;13.60;99.90;;;;;;4907895;29;20478;-72
2023/08/09 05:00:56;;;;;;;2.40;0.83;;;13.60;99.90;;;;;;4910815;29;20522;-72
2023/08/09 05:03:22;;;;;;;0.50;0.50;;;13.60;99.90;;;;;;4914468;29;20578;-72
2023/08/09 05:05:49;;;;;;;1.03;0.90;;;13.50;99.90;;;;;;4908143;29;20469;-72
2023/08/09 05:08:16;;;;;;;1.60;0.47;;;13.50;99.90;;;;;;4911804;29;20499;-72
2023/08/09 05:10:44;;;;;;;1.20;1.20;;;13.60;99.90;;;;;;4912736;29;21032;-73
2023/08/09 05:13:10;;;;;;;4.73;0.80;;;13.60;99.90;;;;;;4910661;29;20471;-73
2023/08/09 05:15:37;;;;;;;1.13;0.83;;;13.60;99.90;;;;;;4911551;29;20475;-73
2023/08/09 05:18:05;;;;;;;6.67;0.63;;;13.60;99.90;;;;;;4911755;29;21014;-73
2023/08/09 05:20:31;;;;;;;0.87;0.80;;;13.60;99.90;;;;;;4912742;29;20498;-73
2023/08/09 05:22:58;;;;;;;2.10;0.63;;;13.60;99.90;;;;;;4911393;29;20474;-73
2023/08/09 05:25:25;;;;;;;0.50;0.50;;;13.70;99.90;;;;;;4912637;29;20474;-73
2023/08/09 05:27:53;;;;;;;1.33;1.33;;;13.70;99.90;;;;;;4910655;29;20483;-73
2023/08/09 05:30:20;;;;;;;0.60;0.60;;;13.70;99.90;;;;;;4911187;29;20878;-72
2023/08/09 05:32:48;;;;;;;1.60;0.60;;;13.80;99.90;;;;;;4911008;29;20474;-73
2023/08/09 05:35:14;;;;;;;0.50;0.50;;;13.80;99.90;;;;;;4911273;29;20562;-72
2023/08/09 05:37:41;;;;;;;1.60;0.43;;;13.80;99.90;;;;;;4912107;29;20473;-73
2023/08/09 05:40:09;;;;;;;0.60;0.60;;;13.80;99.90;;;;;;4912702;29;20493;-72
2023/08/09 05:42:36;;;;;;;0.63;0.50;;;13.80;99.90;;;;;;4913783;29;20881;-72
2023/08/09 05:45:05;;;;;;;1.57;0.57;;;13.90;99.90;;;;;;4912273;29;20474;-71
2023/08/09 05:47:32;;;;;;;0.47;0.47;;;13.80;99.90;;;;;;4912345;29;20490;-71
2023/08/09 05:49:59;;;;;;;1.67;0.80;;;14.00;99.90;;;;;;4905079;29;20478;-71
2023/08/09 05:52:26;;;;;;;2.63;1.13;;;14.10;99.90;;;;;;4910439;29;20491;-71
2023/08/09 05:54:53;;;;;;;1.07;1.07;;;14.20;99.90;;;;;;4911155;29;20957;-71
2023/08/09 05:57:20;;;;;;;0.60;0.60;;;14.40;99.90;;;;;;4912627;29;20557;-71
2023/08/09 05:59:47;;;;;;;0.80;0.80;;;14.50;99.90;;;;;;4912265;29;20557;-71
2023/08/09 06:02:15;;;;;;;2.40;0.73;;;14.60;99.90;;;;;;4907408;29;20498;-71
2023/08/09 06:04:43;;;;;;;4.67;1.40;;;14.60;99.90;;;;;;4909526;29;20478;-72
2023/08/09 06:07:09;;;;;;;2.97;1.40;;;14.70;99.90;;;;;;4910758;29;20530;-71
2023/08/09 06:09:36;;;;;;;1.00;1.00;;;14.80;99.90;;;;;;4909342;29;20545;-70
2023/08/09 06:12:05;;;;;;;0.57;0.57;;;14.80;99.90;;;;;;4908244;29;20568;-71
2023/08/09 06:14:33;;;;;;;1.00;1.00;;;15.10;99.90;;;;;;4911150;29;20557;-69
2023/08/09 06:16:59;;;;;;;1.03;1.03;;;15.70;99.90;;;;;;4912119;29;20947;-69
2023/08/09 06:19:27;;;;;;;2.57;0.87;;;16.30;99.90;;;;;;4909459;29;20470;-71
2023/08/09 06:21:54;;;;;;;0.60;0.60;;;16.50;99.90;;;;;;4912836;29;20537;-69
2023/08/09 06:24:21;;;;;;;0.73;0.70;;;16.40;99.90;;;;;;4908831;29;20973;-70
2023/08/09 06:26:47;;;;;;;0.60;0.60;;;16.30;99.90;;;;;;4910410;29;20478;-71
2023/08/09 06:29:14;;;;;;;0.50;0.50;;;16.00;99.90;;;;;;4905253;29;20542;-71
2023/08/09 06:31:41;;;;;;;1.90;1.00;;;15.90;99.90;;;;;;4910382;29;20526;-71
2023/08/09 06:34:08;;;;;;;0.87;0.50;;;15.80;99.90;;;;;;4906206;29;20836;-71
2023/08/09 06:36:36;;;;;;;1.27;0.93;;;16.30;99.90;;;;;;4909289;29;20471;-71
2023/08/09 06:39:03;;;;;;;1.60;1.07;;;16.80;99.90;;;;;;4908349;29;20493;-70
2023/08/09 06:41:29;;;;;;;0.70;0.70;;;16.80;99.90;;;;;;4911198;29;20577;-70
2023/08/09 06:43:56;;;;;;;1.10;1.10;;;16.80;99.90;;;;;;4908306;29;20509;-70
2023/08/09 06:46:23;;;;;;;1.03;0.63;;;16.80;99.90;;;;;;4909361;29;20482;-71
2023/08/09 06:48:49;;;;;;;6.63;0.67;;;16.80;99.90;;;;;;4909766;29;20493;-71
2023/08/09 06:51:18;;;;;;;0.90;0.70;;;16.60;99.90;;;;;;4907873;29;21166;-71
2023/08/09 06:53:47;;;;;;;1.40;1.10;;;16.60;99.90;;;;;;4911186;29;20474;-71
2023/08/09 06:56:14;;;;;;;0.37;0.37;;;16.40;99.90;;;;;;4911681;29;20878;-71
2023/08/09 06:58:40;;;;;;;1.90;0.50;;;16.30;99.90;;;;;;4907059;29;20819;-71
2023/08/09 07:01:08;;;;;;;1.97;0.50;;;16.20;99.90;;;;;;4910954;29;20506;-71
2023/08/09 07:03:35;;;;;;;0.80;0.80;;;16.10;99.90;;;;;;4912662;29;20481;-70
2023/08/09 07:06:02;;;;;;;0.70;0.70;;;16.20;99.90;;;;;;4908310;29;20478;-70
2023/08/09 07:08:29;;;;;;;2.33;0.93;;;16.30;99.90;;;;;;4913356;29;20882;-70
2023/08/09 07:10:57;;;;;;;2.67;0.60;;;16.30;99.90;;;;;;4914489;29;20927;-70
2023/08/09 07:13:25;;;;;;;0.50;0.50;;;16.30;99.90;;;;;;4914503;29;20478;-70
2023/08/09 07:15:52;;;;;;;0.50;0.50;;;16.30;99.90;;;;;;4913370;29;20537;-70
2023/08/09 07:18:18;;;;;;;1.07;0.77;;;16.30;99.90;;;;;;4909809;29;20478;-70
2023/08/09 07:20:45;;;;;;;2.57;0.80;;;16.30;99.90;;;;;;4908071;29;20501;-70
2023/08/09 07:23:12;;;;;;;0.40;0.40;;;16.20;99.90;;;;;;4912829;29;20470;-70
2023/08/09 07:25:39;;;;;;;0.87;0.87;;;16.30;99.90;;;;;;4915108;29;20463;-69
2023/08/09 07:28:07;;;;;;;5.10;0.73;;;16.50;99.90;;;;;;4914359;29;20483;-68
2023/08/09 07:30:34;;;;;;;0.80;0.73;;;16.70;99.90;;;;;;4914298;29;20486;-69
2023/08/09 07:33:01;;;;;;;3.57;0.70;;;16.70;99.90;;;;;;4908034;29;20557;-69
2023/08/09 07:35:27;;;;;;;0.50;0.50;;;16.80;99.90;;;;;;4912647;29;20489;-69
2023/08/09 07:37:55;;;;;;;0.60;0.60;;;16.90;99.90;;;;;;4915313;29;20482;-69
2023/08/09 07:40:22;;;;;;;0.20;0.20;;;16.90;99.90;;;;;;4916919;29;20467;-69
2023/08/09 07:42:48;;;;;;;3.22;0.85;;;16.90;99.90;;;;;;4914806;29;20489;-70
2023/08/09 07:45:16;;;;;;;0.57;0.57;;;16.80;99.90;;;;;;4914606;29;20217;-69
2023/08/09 07:47:43;;;;;;;0.60;0.60;;;16.70;99.90;;;;;;4913916;29;20478;-69
2023/08/09 07:50:11;;;;;;;0.30;0.30;;;16.60;99.90;;;;;;4913405;29;20495;-68
2023/08/09 07:52:38;;;;;;;1.70;0.50;;;16.60;99.90;;;;;;4914462;29;21055;-69
2023/08/09 07:55:05;;;;;;;0.47;0.47;;;16.40;99.90;;;;;;4910201;29;20590;-68
2023/08/09 07:57:33;;;;;;;0.40;0.40;;;16.30;99.90;;;;;;4913640;29;20478;-69
2023/08/09 07:59:59;;;;;;;1.23;0.60;;;16.30;99.90;;;;;;4914264;29;20451;-69
2023/08/09 08:02:28;;;;;;;0.43;0.43;;;16.40;99.90;;;;;;4914384;29;21025;-69
2023/08/09 08:04:54;;;;;;;1.50;0.57;;;16.40;99.90;;;;;;4909583;29;20546;-69
2023/08/09 08:07:21;;;;;;;0.57;0.37;;;16.50;99.90;;;;;;4914147;29;20462;-69
2023/08/09 08:09:47;;;;;;;0.77;0.40;;;16.50;99.90;;;;;;4908955;29;20554;-69
2023/08/09 08:12:14;;;;;;;1.17;0.57;;;16.50;99.90;;;;;;4911964;29;20491;-68
2023/08/09 08:14:41;;;;;;;0.73;0.70;;;16.60;99.90;;;;;;4913720;29;20481;-69
2023/08/09 08:17:07;;;;;;;2.73;1.07;;;16.70;99.90;;;;;;4911924;29;20458;-69
2023/08/09 08:19:35;;;;;;;0.53;0.40;;;16.80;99.90;;;;;;4912261;29;21031;-70
2023/08/09 08:22:03;;;;;;;1.20;0.73;;;16.90;99.90;;;;;;4901105;29;21115;-69
2023/08/09 08:24:29;;;;;;;0.30;0.30;;;17.10;99.90;;;;;;4913593;29;20974;-68
2023/08/09 08:26:56;;;;;;;0.60;0.60;;;17.30;99.90;;;;;;4913779;29;20501;-69
2023/08/09 08:29:23;;;;;;;0.40;0.40;;;17.40;99.90;;;;;;4909045;29;20579;-69
2023/08/09 08:31:51;;;;;;;1.13;0.53;;;17.40;99.90;;;;;;4913304;29;20632;-69
2023/08/09 08:34:21;;;;;;;2.00;0.57;;;17.30;99.90;;;;;;4910851;29;20562;-68
2023/08/09 08:36:49;;;;;;;0.67;0.67;;;17.20;99.90;;;;;;4909781;29;20928;-69
2023/08/09 08:39:16;;;;;;;0.60;0.60;;;17.10;99.90;;;;;;4912414;29;20570;-69
2023/08/09 08:41:45;;;;;;;0.67;0.67;;;17.00;99.90;;;;;;4913710;29;20483;-69
2023/08/09 08:44:12;;;;;;;0.80;0.80;;;16.60;99.90;;;;;;4910716;29;20474;-69
2023/08/09 08:46:39;;;;;;;0.60;0.60;;;16.30;99.90;;;;;;4910577;29;20470;-68
2023/08/09 08:49:06;;;;;;;0.93;0.93;;;16.00;99.90;;;;;;4913900;29;20490;-67
2023/08/09 08:51:35;;;;;;;0.60;0.60;;;15.90;99.90;;;;;;4909257;29;20494;-67
2023/08/09 08:54:03;;;;;;;2.47;0.87;;;15.90;99.90;;;;;;4910279;29;20530;-69
2023/08/09 08:56:31;;;;;;;1.63;1.53;;;15.80;99.90;;;;;;4913517;29;20462;-69
2023/08/09 08:58:59;;;;;;;3.77;1.27;;;15.80;99.90;;;;;;4913933;29;20537;-70
2023/08/09 09:01:26;;;;;;;0.60;0.60;;;16.00;99.90;;;;;;4906075;29;20577;-69
2023/08/09 09:03:53;;;;;;;0.90;0.90;;;16.10;99.90;;;;;;4906015;29;20513;-69
2023/08/09 09:06:20;;;;;;;1.57;0.90;;;16.20;99.90;;;;;;4907993;29;20969;-69
2023/08/09 09:08:47;;;;;;;1.00;1.00;;;16.30;99.90;;;;;;4912505;29;20589;-70
2023/08/09 09:11:19;;;;;;;0.97;0.97;;;16.50;99.90;;;;;;4912372;29;20521;-70
2023/08/09 09:13:47;;;;;;;0.73;0.73;;;16.70;99.90;;;;;;4913552;29;20471;-69
2023/08/09 09:16:15;;;;;;;0.50;0.50;;;16.70;99.90;;;;;;4906478;29;20478;-69
2023/08/09 09:18:42;;;;;;;0.73;0.73;;;16.90;99.90;;;;;;4906410;29;20580;-69
2023/08/09 09:21:09;;;;;;;1.10;1.10;;;16.90;99.90;;;;;;4911188;29;20494;-69
2023/08/09 09:23:37;;;;;;;0.90;0.90;;;17.00;99.90;;;;;;4912759;29;20490;-69
2023/08/09 09:26:08;;;;;;;1.07;1.07;;;17.20;99.90;;;;;;4911795;29;20993;-69
2023/08/09 09:28:42;;;;;;;0.87;0.83;;;17.30;99.90;;;;;;4902330;29;20460;-69
2023/08/09 09:31:10;;;;;;;0.93;0.93;;;17.50;99.90;;;;;;4893464;29;20492;-69
2023/08/09 09:33:39;;;;;;;0.50;0.50;;;17.50;99.90;;;;;;4905962;29;20845;-69
2023/08/09 09:36:11;;;;;;;2.23;0.43;;;17.50;99.90;;;;;;4913149;29;20929;-70
2023/08/09 09:38:38;;;;;;;1.03;1.03;;;17.50;99.90;;;;;;4905472;29;20469;-70
2023/08/09 09:41:07;;;;;;;0.83;0.50;;;17.50;99.90;;;;;;4910647;29;20558;-70
2023/08/09 09:43:34;;;;;;;0.83;0.70;;;17.50;99.90;;;;;;4910625;29;20474;-70
2023/08/09 09:46:02;;;;;;;0.93;0.93;;;17.50;99.90;;;;;;4910138;29;20481;-69
2023/08/09 09:48:29;;;;;;;0.50;0.50;;;17.50;99.90;;;;;;4912218;29;20470;-70
2023/08/09 09:50:56;;;;;;;2.70;0.70;;;17.70;99.90;;;;;;4911766;29;20503;-70
2023/08/09 09:53:23;;;;;;;0.30;0.30;;;17.80;99.90;;;;;;4911779;29;20864;-69
2023/08/09 09:55:51;;;;;;;0.30;0.30;;;18.20;99.90;;;;;;4908524;29;20538;-69
2023/08/09 09:58:17;;;;;;;2.43;0.33;;;18.30;99.90;;;;;;4904047;29;20470;-69
2023/08/09 10:00:47;;;;;;;0.57;0.30;;;18.40;99.90;;;;;;4912056;29;20485;-70
2023/08/09 10:03:18;;;;;;;1.90;0.90;;;18.50;99.90;;;;;;4910649;29;20477;-70
2023/08/09 10:05:48;;;;;;;0.97;0.40;;;18.60;99.90;;;;;;4912316;29;20471;-69
2023/08/09 10:08:19;;;;;;;0.50;0.50;;;18.50;99.90;;;;;;4910671;29;20524;-69
2023/08/09 10:10:48;;;;;;;5.40;0.53;;;18.60;99.90;;;;;;4910966;29;20626;-70
2023/08/09 10:13:17;;;;;;;0.63;0.63;;;18.50;99.90;;;;;;4912554;29;20839;-68
2023/08/09 10:15:47;;;;;;;1.90;0.93;;;18.60;99.90;;;;;;4912129;29;20466;-68
2023/08/09 10:18:20;;;;;;;0.87;0.87;;;18.80;99.90;;;;;;4928021;23;20585;-70
2023/08/09 10:20:51;;;;;;;0.67;0.30;;;19.10;99.90;;;;;;4904778;29;20460;-68
2023/08/09 10:23:21;;;;;;;0.60;0.60;;;19.40;99.90;;;;;;4906431;29;20482;-68
2023/08/09 10:25:50;;;;;;;1.20;0.20;;;19.50;99.90;;;;;;4901936;29;20475;-68
2023/08/09 10:28:17;;;;;;;0.83;0.50;;;19.50;99.90;;;;;;4894150;29;20548;-67
2023/08/09 10:30:46;;;;;;;0.63;0.50;;;19.30;99.90;;;;;;4893644;29;20522;-68
2023/08/09 10:33:18;;;;;;;0.50;0.50;;;19.10;99.90;;;;;;4893782;29;20470;-68
2023/08/09 10:35:49;;;;;;;4.53;0.63;;;18.90;99.90;;;;;;4901009;29;20478;-68
2023/08/09 10:38:18;;;;;;;0.70;0.60;;;18.90;99.90;;;;;;4902912;29;21086;-69
2023/08/09 10:40:49;;;;;;;0.90;0.57;;;18.90;99.90;;;;;;4897997;29;20477;-69
2023/08/09 10:43:20;;;;;;;0.40;0.40;;;19.00;99.90;;;;;;4891703;29;20481;-69
2023/08/09 10:45:48;;;;;;;0.47;0.47;;;19.10;99.90;;;;;;4891368;29;20510;-69
2023/08/09 10:48:22;;;;;;;1.70;0.63;;;19.10;99.90;;;;;;4888615;29;20494;-69
2023/08/09 10:51:02;;;;;;;2.33;1.07;;;19.10;99.90;;;;;;4895123;29;20471;-69
2023/08/09 10:53:29;;;;;;;0.30;0.30;;;19.00;99.90;;;;;;4895063;29;20488;-69
2023/08/09 10:55:58;;;;;;;0.40;0.40;;;18.90;99.90;;;;;;4898689;29;20474;-69
2023/08/09 10:58:28;;;;;;;2.57;1.23;;;18.90;99.90;;;;;;4892812;29;20502;-69
2023/08/09 11:00:55;;;;;;;0.40;0.40;;;18.90;99.90;;;;;;4899306;29;20469;-69
2023/08/09 11:03:22;;;;;;;0.50;0.50;;;18.80;99.90;;;;;;4894784;29;20499;-69
2023/08/09 11:05:49;;;;;;;2.27;0.47;;;18.90;99.90;;;;;;4893934;29;20559;-69
2023/08/09 11:08:18;;;;;;;0.63;0.63;;;19.00;99.90;;;;;;4894057;29;20493;-69
2023/08/09 11:10:46;;;;;;;0.50;0.47;;;19.10;99.90;;;;;;4894610;29;20501;-69
2023/08/09 11:13:15;;;;;;;1.60;0.33;;;19.20;99.90;;;;;;4895158;29;20480;-70
2023/08/09 11:15:46;;;;;;;0.53;0.50;;;19.10;99.90;;;;;;4906005;29;20475;-70
2023/08/09 11:18:13;;;;;;;0.20;0.20;;;19.00;99.90;;;;;;4896176;29;20853;-69
2023/08/09 11:20:40;;;;;;;0.20;0.20;;;18.80;99.90;;;;;;4896258;29;20487;-69
2023/08/09 11:23:07;;;;;;;0.70;0.40;;;18.80;99.90;;;;;;4891967;29;20474;-69
2023/08/09 11:25:35;;;;;;;0.37;0.37;;;18.70;99.90;;;;;;4893697;29;21174;-69
2023/08/09 11:28:07;;;;;;;0.77;0.77;;;18.70;99.90;;;;;;4892038;29;20512;-69
2023/08/09 11:30:34;;;;;;;0.50;0.50;;;18.70;99.90;;;;;;4893833;29;20572;-69
2023/08/09 11:33:03;;;;;;;0.50;0.40;;;18.60;99.90;;;;;;4896645;29;20576;-70
2023/08/09 11:35:32;;;;;;;0.73;0.73;;;18.60;99.90;;;;;;4895806;29;20526;-69
2023/08/09 11:37:59;;;;;;;0.70;0.70;;;18.50;99.90;;;;;;4895150;29;20500;-70
2023/08/09 11:40:26;;;;;;;0.60;0.50;;;18.50;99.90;;;;;;4894872;29;20519;-69
2023/08/09 11:42:59;;;;;;;0.33;0.33;;;18.60;99.90;;;;;;4894393;29;20468;-70
2023/08/09 11:45:26;;;;;;;0.50;0.50;;;18.60;99.90;;;;;;4893264;29;20475;-69
2023/08/09 11:47:55;;;;;;;0.47;0.47;;;18.50;99.90;;;;;;4879139;29;20506;-68
2023/08/09 11:50:23;;;;;;;0.80;0.80;;;18.40;99.90;;;;;;4890764;29;20527;-69
2023/08/09 11:52:54;;;;;;;1.33;0.43;;;18.40;99.90;;;;;;4881892;29;20507;-70
2023/08/09 11:55:21;;;;;;;0.20;0.20;;;18.50;99.90;;;;;;4892611;29;20477;-70
2023/08/09 11:57:48;;;;;;;0.30;0.30;;;18.60;99.90;;;;;;4890346;29;20907;-70
2023/08/09 12:00:17;;;;;;;0.50;0.50;;;18.70;99.90;;;;;;4887822;29;20460;-70
2023/08/09 12:02:44;;;;;;;0.20;0.20;;;18.90;99.90;;;;;;4891863;29;20604;-69
2023/08/09 12:05:12;;;;;;;1.13;0.20;;;18.90;99.90;;;;;;4890163;29;20953;-70
2023/08/09 12:07:39;;;;;;;0.40;0.40;;;18.90;99.90;;;;;;4893432;29;20493;-69
2023/08/09 12:10:11;;;;;;;0.20;0.20;;;18.80;99.90;;;;;;4893545;29;20918;-70
2023/08/09 12:12:39;;;;;;;1.07;0.60;;;18.90;99.90;;;;;;4905752;29;20552;-69
2023/08/09 12:15:09;;;;;;;1.90;0.40;;;19.00;99.90;;;;;;4880666;29;20473;-70
2023/08/09 12:17:37;;;;;;;0.50;0.50;;;19.00;99.90;;;;;;4897214;29;20577;-70
2023/08/09 12:20:06;;;;;;;0.93;0.77;;;19.10;99.90;;;;;;4895633;29;20521;-70
2023/08/09 12:22:33;;;;;;;0.50;0.50;;;19.00;99.90;;;;;;4898473;29;20866;-69
2023/08/09 12:25:01;;;;;;;0.83;0.70;;;19.10;99.90;;;;;;4896800;29;20914;-70
2023/08/09 12:27:27;;;;;;;0.40;0.40;;;19.20;99.90;;;;;;4894132;29;20879;-69
2023/08/09 12:29:54;;;;;;;2.93;0.70;;;19.20;99.90;;;;;;4888498;29;20493;-69
2023/08/09 12:32:21;;;;;;;0.60;0.60;;;19.20;99.90;;;;;;4893530;29;20476;-69
2023/08/09 12:34:49;;;;;;;0.40;0.40;;;19.20;99.90;;;;;;4904600;29;20478;-69
2023/08/09 12:37:16;;;;;;;2.03;0.53;;;19.30;99.90;;;;;;4897314;29;20588;-69
2023/08/09 12:39:43;;;;;;;3.40;0.67;;;19.30;99.90;;;;;;4899859;29;20505;-69
2023/08/09 12:42:10;;;;;;;2.67;0.60;;;19.50;99.90;;;;;;4896318;29;20556;-65
2023/08/09 12:44:38;;;;;;;0.60;0.60;;;19.50;99.90;;;;;;4891899;29;20506;-66
2023/08/09 12:47:05;;;;;;;1.80;0.57;;;19.60;99.90;;;;;;4891119;29;20507;-66
2023/08/09 12:49:32;;;;;;;0.30;0.30;;;19.70;99.90;;;;;;4892645;29;20478;-66
2023/08/09 12:52:00;;;;;;;0.43;0.43;;;19.80;99.90;;;;;;4891836;29;20558;-72
2023/08/09 12:54:26;;;;;;;0.83;0.40;;;19.80;99.90;;;;;;4889062;29;20538;-66
2023/08/09 12:56:53;;;;;;;0.20;0.20;;;19.80;99.90;;;;;;4898004;29;20540;-66
2023/08/09 12:59:19;;;;;;;0.60;0.60;;;19.90;99.90;;;;;;4899614;29;20560;-69
2023/08/09 13:01:46;;;;;;;1.07;0.30;;;19.90;99.90;;;;;;4898200;29;20473;-69
2023/08/09 13:04:15;;;;;;;0.97;0.50;;;20.00;99.90;;;;;;4887842;29;20857;-69
2023/08/09 13:06:42;;;;;;;1.23;0.50;;;20.10;99.90;;;;;;4892735;29;20479;-69
2023/08/09 13:09:11;;;;;;;0.60;0.60;;;20.30;99.90;;;;;;4894301;29;20505;-69
2023/08/09 13:11:38;;;;;;;0.50;0.47;;;20.40;99.90;;;;;;4891820;29;20570;-69
2023/08/09 13:14:05;;;;;;;0.33;0.33;;;20.60;99.90;;;;;;4907108;29;20568;-69
2023/08/09 13:16:32;;;;;;;0.47;0.47;;;20.70;99.90;;;;;;4901073;29;20464;-69
2023/08/09 13:18:59;;;;;;;0.20;0.20;;;20.70;99.90;;;;;;4893547;29;20594;-69
2023/08/09 13:21:25;;;;;;;0.73;0.50;;;20.50;99.90;;;;;;4894540;29;20483;-69
2023/08/09 13:23:52;;;;;;;0.20;0.20;;;20.10;99.90;;;;;;4894181;29;20467;-69
2023/08/09 13:26:20;;;;;;;0.30;0.30;;;19.70;99.90;;;;;;4893967;29;21093;-69
2023/08/09 13:28:46;;;;;;;0.53;0.20;;;19.50;99.90;;;;;;4907373;29;20497;-69
2023/08/09 13:31:13;;;;;;;0.30;0.30;;;19.50;99.90;;;;;;4897436;29;20488;-69
2023/08/09 13:33:40;;;;;;;0.60;0.40;;;19.60;99.90;;;;;;4893682;29;20474;-70
2023/08/09 13:36:06;;;;;;;3.50;0.80;;;19.50;99.90;;;;;;4894347;29;20474;-69
2023/08/09 13:38:40;;;;;;;2.67;0.90;;;19.40;99.90;;;;;;4894391;29;20488;-69
2023/08/09 13:41:06;;;;;;;1.00;1.00;;;19.30;99.90;;;;;;4892059;29;20509;-70
2023/08/09 13:43:35;;;;;;;2.10;0.93;;;19.10;99.90;;;;;;4904286;29;20554;-70
2023/08/09 13:46:01;;;;;;;0.77;0.70;;;18.80;99.90;;;;;;4893419;29;20970;-70
2023/08/09 13:48:28;;;;;;;0.30;0.30;;;18.20;99.90;;;;;;4893839;29;20506;-70
2023/08/09 13:50:55;;;;;;;2.10;0.37;;;17.80;99.90;;;;;;4894312;29;20494;-68
2023/08/09 13:53:21;;;;;;;0.53;0.53;;;17.40;99.90;;;;;;4893808;29;20552;-69
2023/08/09 13:55:48;;;;;;;0.60;0.60;;;17.20;99.90;;;;;;4901415;29;20973;-70
2023/08/09 13:58:15;;;;;;;7.10;0.80;;;17.20;99.90;;;;;;4904645;29;20478;-70
2023/08/09 14:00:43;;;;;;;0.80;0.80;;;17.20;99.90;;;;;;4912347;29;21025;-70
2023/08/09 14:03:10;;;;;;;2.50;0.90;;;17.30;99.90;;;;;;4912033;29;20561;-70
2023/08/09 14:05:37;;;;;;;0.70;0.50;;;17.40;99.90;;;;;;4902880;29;20478;-70
2023/08/09 14:08:05;;;;;;;1.03;1.03;;;17.30;99.90;;;;;;4894496;29;20650;-70
2023/08/09 14:10:32;;;;;;;0.83;0.60;;;17.40;99.90;;;;;;4894974;29;20494;-70
2023/08/09 14:12:58;;;;;;;0.60;0.60;;;17.50;99.90;;;;;;4916154;29;20474;-70
2023/08/09 14:15:25;;;;;;;3.80;0.77;;;17.70;99.90;;;;;;4916056;29;20466;-70
2023/08/09 14:17:53;;;;;;;1.33;1.27;;;17.80;99.90;;;;;;4915246;29;21038;-70
2023/08/09 14:20:21;;;;;;;1.60;0.80;;;17.80;99.90;;;;;;4915068;29;20517;-70
2023/08/09 14:22:48;;;;;;;0.30;0.30;;;18.00;99.90;;;;;;4904283;29;20538;-69
2023/08/09 14:25:16;;;;;;;0.93;0.93;;;18.10;99.90;;;;;;4902699;29;20459;-70
2023/08/09 14:27:42;;;;;;;0.60;0.60;;;18.20;99.90;;;;;;4897452;29;20483;-70
2023/08/09 14:30:10;;;;;;;0.30;0.30;;;18.20;99.90;;;;;;4897391;29;21037;-70
2023/08/09 14:32:37;;;;;;;2.23;0.70;;;18.40;99.90;;;;;;4896431;29;20466;-70
2023/08/09 14:35:08;;;;;;;3.87;0.80;;;18.40;99.90;;;;;;4901946;29;20595;-69
2023/08/09 14:37:35;;;;;;;0.73;0.73;;;18.50;99.90;;;;;;4899363;29;20494;-70
2023/08/09 14:40:03;;;;;;;3.50;0.80;;;18.40;99.90;;;;;;4905107;29;21119;-70
2023/08/09 14:42:30;;;;;;;0.50;0.50;;;18.50;99.90;;;;;;4893727;29;20494;-70
2023/08/09 14:44:56;;;;;;;0.80;0.80;;;18.50;99.90;;;;;;4893695;29;20530;-70
2023/08/09 14:47:23;;;;;;;0.53;0.53;;;18.50;99.90;;;;;;4895424;29;20487;-70
2023/08/09 14:49:50;;;;;;;0.80;0.53;;;18.60;99.90;;;;;;4899669;29;20909;-70
2023/08/09 14:52:18;;;;;;;0.70;0.70;;;18.70;99.90;;;;;;4903404;29;20490;-70
2023/08/09 14:54:45;;;;;;;1.53;0.70;;;18.60;99.90;;;;;;4907233;29;20477;-70
2023/08/09 14:57:12;;;;;;;1.43;0.50;;;18.60;99.90;;;;;;4904272;29;20507;-70
2023/08/09 14:59:38;;;;;;;1.27;0.70;;;18.70;99.90;;;;;;4899846;29;20486;-70
2023/08/09 15:02:05;;;;;;;0.40;0.40;;;18.80;99.90;;;;;;4891107;29;20482;-70
2023/08/09 15:04:32;;;;;;;0.60;0.60;;;18.80;99.90;;;;;;4894934;29;20486;-70
2023/08/09 15:06:59;;;;;;;0.73;0.73;;;18.80;99.90;;;;;;4895033;29;20479;-70
2023/08/09 15:09:27;;;;;;;0.60;0.60;;;18.70;99.90;;;;;;4900049;29;20863;-71
2023/08/09 15:11:54;;;;;;;2.17;0.40;;;18.60;99.90;;;;;;4897599;29;20598;-69
2023/08/09 15:14:21;;;;;;;2.97;0.30;;;18.60;99.90;;;;;;4895569;29;20871;-70
2023/08/09 15:16:48;;;;;;;1.70;0.60;;;18.70;99.90;;;;;;4887078;29;20475;-70
2023/08/09 15:19:15;;;;;;;0.30;0.30;;;18.70;99.90;;;;;;4898895;29;20502;-70
2023/08/09 15:21:41;;;;;;;1.03;0.53;;;18.80;99.90;;;;;;4900526;29;20522;-70
2023/08/09 15:24:08;;;;;;;2.90;0.87;;;18.80;99.90;;;;;;4893475;29;20482;-70
2023/08/09 15:26:36;;;;;;;0.33;0.33;;;18.80;99.90;;;;;;4893658;29;20611;-70
2023/08/09 15:29:03;;;;;;;4.23;0.83;;;18.70;99.90;;;;;;4890402;29;20498;-70
2023/08/09 15:31:30;;;;;;;0.30;0.30;;;18.60;99.90;;;;;;4894711;29;20982;-70
2023/08/09 15:33:56;;;;;;;0.50;0.50;;;18.60;99.90;;;;;;4900611;29;20843;-70
2023/08/09 15:36:23;;;;;;;0.73;0.40;;;18.50;99.90;;;;;;4893620;29;20855;-69
2023/08/09 15:38:50;;;;;;;0.70;0.70;;;18.50;99.90;;;;;;4891584;29;20499;-69
2023/08/09 15:41:16;;;;;;;0.60;0.60;;;18.50;99.90;;;;;;4885567;29;20535;-69
2023/08/09 15:43:44;;;;;;;1.80;0.67;;;18.50;99.90;;;;;;4893312;29;20499;-69
2023/08/09 15:46:11;;;;;;;0.57;0.57;;;18.60;99.90;;;;;;4899782;29;20532;-69
2023/08/09 15:48:38;;;;;;;0.50;0.50;;;18.40;99.90;;;;;;4894818;29;20483;-69
2023/08/09 15:51:04;;;;;;;0.70;0.70;;;18.40;99.90;;;;;;4903412;29;20721;-69
2023/08/09 15:53:31;;;;;;;0.70;0.70;;;18.50;99.90;;;;;;4902378;29;20475;-69
2023/08/09 15:55:58;;;;;;;0.30;0.30;;;18.40;99.90;;;;;;4890333;29;21164;-69
2023/08/09 15:58:24;;;;;;;2.00;0.77;;;18.40;99.90;;;;;;4897775;29;21041;-69
2023/08/09 16:00:53;;;;;;;0.53;0.53;;;18.30;99.90;;;;;;4897709;29;21473;-69
2023/08/09 16:03:20;;;;;;;0.80;0.50;;;18.30;99.90;;;;;;4891565;29;20482;-69
2023/08/09 16:05:47;;;;;;;0.50;0.50;;;18.30;99.90;;;;;;4900735;29;20467;-69
2023/08/09 16:08:13;;;;;;;0.63;0.50;;;18.30;99.90;;;;;;4890939;29;20518;-69
2023/08/09 16:10:40;;;;;;;0.50;0.50;;;18.30;99.90;;;;;;4890666;29;21065;-69
2023/08/09 16:13:07;;;;;;;3.03;0.60;;;18.40;99.90;;;;;;4890257;29;20503;-69
2023/08/09 16:15:34;;;;;;;1.20;0.30;;;18.30;99.90;;;;;;4891242;29;20475;-69
2023/08/09 16:18:02;;;;;;;1.13;0.40;;;18.20;99.90;;;;;;4927129;23;20514;-69
2023/08/09 16:20:29;;;;;;;5.63;0.47;;;18.30;99.90;;;;;;4897848;29;20979;-70
2023/08/09 16:22:56;;;;;;;0.30;0.30;;;18.40;99.90;;;;;;4891811;29;20475;-71
2023/08/09 16:25:23;;;;;;;0.97;0.50;;;18.40;99.90;;;;;;4893335;29;20487;-69
2023/08/09 16:27:50;;;;;;;0.40;0.40;;;18.20;99.90;;;;;;4889338;29;20495;-71
2023/08/09 16:30:17;;;;;;;0.40;0.40;;;18.10;99.90;;;;;;4876613;29;21035;-72
2023/08/09 16:32:44;;;;;;;3.13;0.60;;;18.00;99.90;;;;;;4894440;29;20581;-71
2023/08/09 16:35:12;;;;;;;0.83;0.67;;;17.90;99.90;;;;;;4889486;29;20544;-71
2023/08/09 16:37:39;;;;;;;0.67;0.67;;;17.90;99.90;;;;;;4882676;29;20567;-71
2023/08/09 16:40:08;;;;;;;0.50;0.50;;;17.90;99.90;;;;;;4878006;29;21200;-71
2023/08/09 16:42:35;;;;;;;7.17;0.70;;;17.90;99.90;;;;;;4869802;29;21055;-70
2023/08/09 16:45:03;;;;;;;0.43;0.43;;;17.80;99.90;;;;;;4883836;29;20885;-71
2023/08/09 16:47:32;;;;;;;1.60;0.67;;;17.80;99.90;;;;;;4885836;29;20483;-71
2023/08/09 16:50:02;;;;;;;0.40;0.40;;;17.80;99.90;;;;;;4879557;29;20477;-70